sensor_id;sensor_type;location;lat;lon;timestamp;temperature;humidity
8527;DHT22;4301;48.362;8.478;2022-08-19T00:00:31;17.70;99.90
8527;DHT22;4301;48.362;8.478;2022-08-19T00:02:58;17.80;99.90
8527;DHT22;4301;48.362;8.478;2022-08-19T00:05:25;17.70;99.90
8527;DHT22;4301;48.362;8.478;2022-08-19T00:07:52;17.80;99.90
8527;DHT22;4301;48.362;8.478;2022-08-19T00:10:20;17.80;99.90
8527;DHT22;4301;48.362;8.478;2022-08-19T00:12:47;17.70;99.90
8527;DHT22;4301;48.362;8.478;2022-08-19T00:15:16;17.70;99.90
8527;DHT22;4301;48.362;8.478;2022-08-19T00:17:46;17.70;99.90
8527;DHT22;4301;48.362;8.478;2022-08-19T00:20:15;17.70;99.90
8527;DHT22;4301;48.362;8.478;2022-08-19T00:22:43;17.70;99.90
8527;DHT22;4301;48.362;8.478;2022-08-19T00:25:10;17.70;99.90
8527;DHT22;4301;48.362;8.478;2022-08-19T00:27:38;17.70;99.90
8527;DHT22;4301;48.362;8.478;2022-08-19T00:30:06;17.70;99.90
8527;DHT22;4301;48.362;8.478;2022-08-19T00:32:35;17.70;99.90
8527;DHT22;4301;48.362;8.478;2022-08-19T00:35:05;17.70;99.90
8527;DHT22;4301;48.362;8.478;2022-08-19T00:37:32;17.70;99.90
8527;DHT22;4301;48.362;8.478;2022-08-19T00:40:01;17.70;99.90
8527;DHT22;4301;48.362;8.478;2022-08-19T00:42:29;17.70;99.90
8527;DHT22;4301;48.362;8.478;2022-08-19T00:44:56;17.70;99.90
8527;DHT22;4301;48.362;8.478;2022-08-19T00:47:23;17.70;99.90
8527;DHT22;4301;48.362;8.478;2022-08-19T00:49:53;17.60;99.90
8527;DHT22;4301;48.362;8.478;2022-08-19T00:52:24;17.70;99.90
8527;DHT22;4301;48.362;8.478;2022-08-19T00:54:54;17.60;99.90
8527;DHT22;4301;48.362;8.478;2022-08-19T00:57:27;17.70;99.90
8527;DHT22;4301;48.362;8.478;2022-08-19T00:59:56;17.70;99.90
8527;DHT22;4301;48.362;8.478;2022-08-19T01:02:25;17.60;99.90
8527;DHT22;4301;48.362;8.478;2022-08-19T01:04:53;17.60;99.90
8527;DHT22;4301;48.362;8.478;2022-08-19T01:07:21;17.60;99.90
8527;DHT22;4301;48.362;8.478;2022-08-19T01:09:48;17.60;99.90
8527;DHT22;4301;48.362;8.478;2022-08-19T01:12:16;17.60;99.90
8527;DHT22;4301;48.362;8.478;2022-08-19T01:14:43;17.60;99.90
8527;DHT22;4301;48.362;8.478;2022-08-19T01:17:12;17.60;99.90
8527;DHT22;4301;48.362;8.478;2022-08-19T01:19:40;17.60;99.90
8527;DHT22;4301;48.362;8.478;2022-08-19T01:22:12;17.50;99.90
8527;DHT22;4301;48.362;8.478;2022-08-19T01:24:42;17.50;99.90
8527;DHT22;4301;48.362;8.478;2022-08-19T01:27:09;17.50;99.90
8527;DHT22;4301;48.362;8.478;2022-08-19T01:29:38;17.50;99.90
8527;DHT22;4301;48.362;8.478;2022-08-19T01:32:06;17.50;99.90
8527;DHT22;4301;48.362;8.478;2022-08-19T01:34:34;17.50;99.90
8527;DHT22;4301;48.362;8.478;2022-08-19T01:37:06;17.50;99.90
8527;DHT22;4301;48.362;8.478;2022-08-19T01:39:34;17.50;99.90
8527;DHT22;4301;48.362;8.478;2022-08-19T01:42:03;17.50;99.90
8527;DHT22;4301;48.362;8.478;2022-08-19T01:44:31;17.50;99.90
8527;DHT22;4301;48.362;8.478;2022-08-19T01:46:58;17.50;99.90
8527;DHT22;4301;48.362;8.478;2022-08-19T01:49:26;17.50;99.90
8527;DHT22;4301;48.362;8.478;2022-08-19T01:51:53;17.40;99.90
8527;DHT22;4301;48.362;8.478;2022-08-19T01:54:21;17.40;99.90
8527;DHT22;4301;48.362;8.478;2022-08-19T01:56:49;17.40;99.90
8527;DHT22;4301;48.362;8.478;2022-08-19T01:59:19;17.40;99.90
8527;DHT22;4301;48.362;8.478;2022-08-19T02:01:47;17.40;99.90
8527;DHT22;4301;48.362;8.478;2022-08-19T02:04:14;17.40;99.90
8527;DHT22;4301;48.362;8.478;2022-08-19T02:06:41;17.30;99.90
8527;DHT22;4301;48.362;8.478;2022-08-19T02:09:09;17.30;99.90
8527;DHT22;4301;48.362;8.478;2022-08-19T02:11:37;17.30;99.90
8527;DHT22;4301;48.362;8.478;2022-08-19T02:14:06;17.30;99.90
8527;DHT22;4301;48.362;8.478;2022-08-19T02:16:36;17.20;99.90
8527;DHT22;4301;48.362;8.478;2022-08-19T02:19:04;17.30;99.90
8527;DHT22;4301;48.362;8.478;2022-08-19T02:21:31;17.30;99.90
8527;DHT22;4301;48.362;8.478;2022-08-19T02:23:59;17.30;99.90
8527;DHT22;4301;48.362;8.478;2022-08-19T02:26:26;17.30;99.90
8527;DHT22;4301;48.362;8.478;2022-08-19T02:28:53;17.20;99.90
8527;DHT22;4301;48.362;8.478;2022-08-19T02:31:22;17.20;99.90
8527;DHT22;4301;48.362;8.478;2022-08-19T02:33:51;17.20;99.90
8527;DHT22;4301;48.362;8.478;2022-08-19T02:36:19;17.10;99.90
8527;DHT22;4301;48.362;8.478;2022-08-19T02:38:47;17.10;99.90
8527;DHT22;4301;48.362;8.478;2022-08-19T02:41:16;17.10;99.90
8527;DHT22;4301;48.362;8.478;2022-08-19T02:43:43;17.00;99.90
8527;DHT22;4301;48.362;8.478;2022-08-19T02:46:15;17.00;99.90
8527;DHT22;4301;48.362;8.478;2022-08-19T02:48:47;17.00;99.90
8527;DHT22;4301;48.362;8.478;2022-08-19T02:51:21;16.90;99.90
8527;DHT22;4301;48.362;8.478;2022-08-19T02:53:48;16.90;99.90
8527;DHT22;4301;48.362;8.478;2022-08-19T02:56:15;16.90;99.90
8527;DHT22;4301;48.362;8.478;2022-08-19T02:58:43;16.90;99.90
8527;DHT22;4301;48.362;8.478;2022-08-19T03:01:10;16.90;99.90
8527;DHT22;4301;48.362;8.478;2022-08-19T03:03:38;16.80;99.90
8527;DHT22;4301;48.362;8.478;2022-08-19T03:06:08;16.80;99.90
8527;DHT22;4301;48.362;8.478;2022-08-19T03:08:38;16.80;99.90
8527;DHT22;4301;48.362;8.478;2022-08-19T03:11:05;16.70;99.90
8527;DHT22;4301;48.362;8.478;2022-08-19T03:13:32;16.70;99.90
8527;DHT22;4301;48.362;8.478;2022-08-19T03:15:59;16.60;99.90
8527;DHT22;4301;48.362;8.478;2022-08-19T03:18:30;16.60;99.90
8527;DHT22;4301;48.362;8.478;2022-08-19T03:20:58;16.60;99.90
8527;DHT22;4301;48.362;8.478;2022-08-19T03:23:25;16.60;99.90
8527;DHT22;4301;48.362;8.478;2022-08-19T03:25:53;16.60;99.90
8527;DHT22;4301;48.362;8.478;2022-08-19T03:28:21;16.70;99.90
8527;DHT22;4301;48.362;8.478;2022-08-19T03:30:58;16.70;99.90
8527;DHT22;4301;48.362;8.478;2022-08-19T03:33:27;16.70;99.90
8527;DHT22;4301;48.362;8.478;2022-08-19T03:36:03;16.70;99.90
8527;DHT22;4301;48.362;8.478;2022-08-19T03:38:31;16.70;99.90
8527;DHT22;4301;48.362;8.478;2022-08-19T03:41:04;16.60;99.90
8527;DHT22;4301;48.362;8.478;2022-08-19T03:43:32;16.60;99.90
8527;DHT22;4301;48.362;8.478;2022-08-19T03:46:01;16.70;99.90
8527;DHT22;4301;48.362;8.478;2022-08-19T03:48:30;16.60;99.90
8527;DHT22;4301;48.362;8.478;2022-08-19T03:50:57;16.60;99.90
8527;DHT22;4301;48.362;8.478;2022-08-19T03:56:35;16.60;99.90
8527;DHT22;4301;48.362;8.478;2022-08-19T03:59:04;16.30;99.90
8527;DHT22;4301;48.362;8.478;2022-08-19T04:01:31;16.60;99.90
8527;DHT22;4301;48.362;8.478;2022-08-19T04:03:59;16.60;99.90
8527;DHT22;4301;48.362;8.478;2022-08-19T04:06:28;16.60;99.90
8527;DHT22;4301;48.362;8.478;2022-08-19T04:08:57;16.60;99.90
8527;DHT22;4301;48.362;8.478;2022-08-19T04:11:27;16.60;99.90
8527;DHT22;4301;48.362;8.478;2022-08-19T04:13:56;16.60;99.90
8527;DHT22;4301;48.362;8.478;2022-08-19T04:16:25;16.50;99.90
8527;DHT22;4301;48.362;8.478;2022-08-19T04:18:54;16.60;99.90
8527;DHT22;4301;48.362;8.478;2022-08-19T04:21:23;16.50;99.90
8527;DHT22;4301;48.362;8.478;2022-08-19T04:23:51;16.50;99.90
8527;DHT22;4301;48.362;8.478;2022-08-19T04:26:20;16.50;99.90
8527;DHT22;4301;48.362;8.478;2022-08-19T04:28:47;16.50;99.90
8527;DHT22;4301;48.362;8.478;2022-08-19T04:31:17;16.50;99.90
8527;DHT22;4301;48.362;8.478;2022-08-19T04:33:44;16.60;99.90
8527;DHT22;4301;48.362;8.478;2022-08-19T04:36:16;16.60;99.90
8527;DHT22;4301;48.362;8.478;2022-08-19T04:38:46;16.60;99.90
8527;DHT22;4301;48.362;8.478;2022-08-19T04:41:13;16.60;99.90
8527;DHT22;4301;48.362;8.478;2022-08-19T04:43:58;16.60;99.90
8527;DHT22;4301;48.362;8.478;2022-08-19T04:46:26;16.50;99.90
8527;DHT22;4301;48.362;8.478;2022-08-19T04:48:56;16.60;99.90
8527;DHT22;4301;48.362;8.478;2022-08-19T04:51:24;16.60;99.90
8527;DHT22;4301;48.362;8.478;2022-08-19T04:53:51;16.60;99.90
8527;DHT22;4301;48.362;8.478;2022-08-19T04:56:20;16.60;99.90
8527;DHT22;4301;48.362;8.478;2022-08-19T04:58:48;16.70;99.90
8527;DHT22;4301;48.362;8.478;2022-08-19T05:01:18;16.60;99.90
8527;DHT22;4301;48.362;8.478;2022-08-19T05:03:47;16.70;99.90
8527;DHT22;4301;48.362;8.478;2022-08-19T05:06:16;16.70;99.90
8527;DHT22;4301;48.362;8.478;2022-08-19T05:08:44;16.70;99.90
8527;DHT22;4301;48.362;8.478;2022-08-19T05:11:14;16.70;99.90
8527;DHT22;4301;48.362;8.478;2022-08-19T05:13:42;16.70;99.90
8527;DHT22;4301;48.362;8.478;2022-08-19T05:16:10;16.70;99.90
8527;DHT22;4301;48.362;8.478;2022-08-19T05:18:37;16.70;99.90
8527;DHT22;4301;48.362;8.478;2022-08-19T05:21:23;16.70;99.90
8527;DHT22;4301;48.362;8.478;2022-08-19T05:24:08;16.70;99.90
8527;DHT22;4301;48.362;8.478;2022-08-19T05:26:35;16.70;99.90
8527;DHT22;4301;48.362;8.478;2022-08-19T05:29:02;16.80;99.90
8527;DHT22;4301;48.362;8.478;2022-08-19T05:31:30;16.80;99.90
8527;DHT22;4301;48.362;8.478;2022-08-19T05:33:57;16.70;99.90
8527;DHT22;4301;48.362;8.478;2022-08-19T05:36:26;16.80;99.90
8527;DHT22;4301;48.362;8.478;2022-08-19T05:38:53;16.70;99.90
8527;DHT22;4301;48.362;8.478;2022-08-19T05:41:21;16.70;99.90
8527;DHT22;4301;48.362;8.478;2022-08-19T05:43:50;16.70;99.90
8527;DHT22;4301;48.362;8.478;2022-08-19T05:46:19;16.70;99.90
8527;DHT22;4301;48.362;8.478;2022-08-19T05:48:46;16.70;99.90
8527;DHT22;4301;48.362;8.478;2022-08-19T05:51:14;16.70;99.90
8527;DHT22;4301;48.362;8.478;2022-08-19T05:53:43;16.80;99.90
8527;DHT22;4301;48.362;8.478;2022-08-19T05:56:12;16.80;99.90
8527;DHT22;4301;48.362;8.478;2022-08-19T05:58:40;16.90;99.90
8527;DHT22;4301;48.362;8.478;2022-08-19T06:01:11;16.80;99.90
8527;DHT22;4301;48.362;8.478;2022-08-19T06:03:39;16.80;99.90
8527;DHT22;4301;48.362;8.478;2022-08-19T06:06:08;16.80;99.90
8527;DHT22;4301;48.362;8.478;2022-08-19T06:08:35;16.80;99.90
8527;DHT22;4301;48.362;8.478;2022-08-19T06:11:17;16.90;99.90
8527;DHT22;4301;48.362;8.478;2022-08-19T06:13:45;16.90;99.90
8527;DHT22;4301;48.362;8.478;2022-08-19T06:16:16;17.00;99.90
8527;DHT22;4301;48.362;8.478;2022-08-19T06:18:48;17.00;99.90
8527;DHT22;4301;48.362;8.478;2022-08-19T06:21:17;17.10;99.90
8527;DHT22;4301;48.362;8.478;2022-08-19T06:23:44;17.00;99.90
8527;DHT22;4301;48.362;8.478;2022-08-19T06:26:15;17.00;99.90
8527;DHT22;4301;48.362;8.478;2022-08-19T06:28:42;17.10;99.90
8527;DHT22;4301;48.362;8.478;2022-08-19T06:31:12;17.10;99.90
8527;DHT22;4301;48.362;8.478;2022-08-19T06:33:40;17.10;99.90
8527;DHT22;4301;48.362;8.478;2022-08-19T06:36:08;17.10;99.90
8527;DHT22;4301;48.362;8.478;2022-08-19T06:38:42;17.10;99.90
8527;DHT22;4301;48.362;8.478;2022-08-19T06:41:09;17.10;99.90
8527;DHT22;4301;48.362;8.478;2022-08-19T06:43:38;17.10;99.90
8527;DHT22;4301;48.362;8.478;2022-08-19T06:46:10;17.20;99.90
8527;DHT22;4301;48.362;8.478;2022-08-19T06:48:38;17.20;99.90
8527;DHT22;4301;48.362;8.478;2022-08-19T06:51:05;17.30;99.90
8527;DHT22;4301;48.362;8.478;2022-08-19T06:53:32;17.30;99.90
8527;DHT22;4301;48.362;8.478;2022-08-19T06:55:59;17.40;99.90
8527;DHT22;4301;48.362;8.478;2022-08-19T06:58:28;17.40;99.90
8527;DHT22;4301;48.362;8.478;2022-08-19T07:01:00;17.50;99.90
8527;DHT22;4301;48.362;8.478;2022-08-19T07:03:29;17.60;99.90
8527;DHT22;4301;48.362;8.478;2022-08-19T07:05:57;17.70;99.90
8527;DHT22;4301;48.362;8.478;2022-08-19T07:08:24;17.70;99.90
8527;DHT22;4301;48.362;8.478;2022-08-19T07:10:52;17.80;99.90
8527;DHT22;4301;48.362;8.478;2022-08-19T07:13:20;17.90;99.90
8527;DHT22;4301;48.362;8.478;2022-08-19T07:15:48;17.90;99.90
8527;DHT22;4301;48.362;8.478;2022-08-19T07:18:18;17.90;99.90
8527;DHT22;4301;48.362;8.478;2022-08-19T07:20:47;17.90;99.90
8527;DHT22;4301;48.362;8.478;2022-08-19T07:23:14;18.00;99.90
8527;DHT22;4301;48.362;8.478;2022-08-19T07:25:41;18.00;99.90
8527;DHT22;4301;48.362;8.478;2022-08-19T07:28:09;18.10;99.90
8527;DHT22;4301;48.362;8.478;2022-08-19T07:30:39;18.10;99.90
8527;DHT22;4301;48.362;8.478;2022-08-19T07:33:06;18.10;99.90
8527;DHT22;4301;48.362;8.478;2022-08-19T07:35:34;18.20;99.90
8527;DHT22;4301;48.362;8.478;2022-08-19T07:38:02;18.20;99.90
8527;DHT22;4301;48.362;8.478;2022-08-19T07:40:30;18.30;99.90
8527;DHT22;4301;48.362;8.478;2022-08-19T07:42:57;18.30;99.90
8527;DHT22;4301;48.362;8.478;2022-08-19T07:45:24;18.40;99.90
8527;DHT22;4301;48.362;8.478;2022-08-19T07:47:51;18.40;99.90
8527;DHT22;4301;48.362;8.478;2022-08-19T07:50:19;18.40;99.90
8527;DHT22;4301;48.362;8.478;2022-08-19T07:52:49;18.50;99.90
8527;DHT22;4301;48.362;8.478;2022-08-19T07:55:18;18.50;99.90
8527;DHT22;4301;48.362;8.478;2022-08-19T07:57:45;18.60;99.90
8527;DHT22;4301;48.362;8.478;2022-08-19T08:00:13;18.70;99.90
8527;DHT22;4301;48.362;8.478;2022-08-19T08:02:40;18.80;99.90
8527;DHT22;4301;48.362;8.478;2022-08-19T08:05:08;18.80;99.90
8527;DHT22;4301;48.362;8.478;2022-08-19T08:07:54;18.80;99.90
8527;DHT22;4301;48.362;8.478;2022-08-19T08:10:39;18.90;99.90
8527;DHT22;4301;48.362;8.478;2022-08-19T08:13:06;18.90;99.90
8527;DHT22;4301;48.362;8.478;2022-08-19T08:15:33;18.90;99.90
8527;DHT22;4301;48.362;8.478;2022-08-19T08:18:00;18.90;99.90
8527;DHT22;4301;48.362;8.478;2022-08-19T08:20:27;19.00;99.90
8527;DHT22;4301;48.362;8.478;2022-08-19T08:22:56;19.00;99.90
8527;DHT22;4301;48.362;8.478;2022-08-19T08:25:40;19.10;99.90
8527;DHT22;4301;48.362;8.478;2022-08-19T08:28:07;19.10;99.90
8527;DHT22;4301;48.362;8.478;2022-08-19T08:30:34;19.10;99.90
8527;DHT22;4301;48.362;8.478;2022-08-19T08:33:05;19.10;99.90
8527;DHT22;4301;48.362;8.478;2022-08-19T08:35:32;19.00;99.90
8527;DHT22;4301;48.362;8.478;2022-08-19T08:38:02;19.00;99.90
8527;DHT22;4301;48.362;8.478;2022-08-19T08:40:33;19.00;99.90
8527;DHT22;4301;48.362;8.478;2022-08-19T08:43:07;18.90;99.90
8527;DHT22;4301;48.362;8.478;2022-08-19T08:45:48;18.90;99.90
8527;DHT22;4301;48.362;8.478;2022-08-19T08:48:20;19.00;99.90
8527;DHT22;4301;48.362;8.478;2022-08-19T08:50:51;19.00;99.90
8527;DHT22;4301;48.362;8.478;2022-08-19T08:53:23;19.00;99.90
8527;DHT22;4301;48.362;8.478;2022-08-19T08:55:50;19.00;99.90
8527;DHT22;4301;48.362;8.478;2022-08-19T08:58:24;19.00;99.90
8527;DHT22;4301;48.362;8.478;2022-08-19T09:00:53;19.00;99.90
8527;DHT22;4301;48.362;8.478;2022-08-19T09:03:22;19.00;99.90
8527;DHT22;4301;48.362;8.478;2022-08-19T09:05:57;19.00;99.90
8527;DHT22;4301;48.362;8.478;2022-08-19T09:08:36;18.90;99.90
8527;DHT22;4301;48.362;8.478;2022-08-19T09:11:07;18.90;99.90
8527;DHT22;4301;48.362;8.478;2022-08-19T09:13:42;19.00;99.90
8527;DHT22;4301;48.362;8.478;2022-08-19T09:16:14;19.00;99.90
8527;DHT22;4301;48.362;8.478;2022-08-19T09:18:44;19.00;99.90
8527;DHT22;4301;48.362;8.478;2022-08-19T09:21:13;19.00;99.90
8527;DHT22;4301;48.362;8.478;2022-08-19T09:23:42;19.00;99.90
8527;DHT22;4301;48.362;8.478;2022-08-19T09:26:10;19.00;99.90
8527;DHT22;4301;48.362;8.478;2022-08-19T09:28:39;19.00;99.90
8527;DHT22;4301;48.362;8.478;2022-08-19T09:31:08;19.00;99.90
8527;DHT22;4301;48.362;8.478;2022-08-19T09:33:35;19.10;99.90
8527;DHT22;4301;48.362;8.478;2022-08-19T09:36:05;19.10;99.90
8527;DHT22;4301;48.362;8.478;2022-08-19T09:38:33;19.10;99.90
8527;DHT22;4301;48.362;8.478;2022-08-19T09:41:05;19.10;99.90
8527;DHT22;4301;48.362;8.478;2022-08-19T09:43:33;19.20;99.90
8527;DHT22;4301;48.362;8.478;2022-08-19T09:46:02;19.20;99.90
8527;DHT22;4301;48.362;8.478;2022-08-19T09:48:31;19.20;99.90
8527;DHT22;4301;48.362;8.478;2022-08-19T09:51:03;19.20;99.90
8527;DHT22;4301;48.362;8.478;2022-08-19T09:53:31;19.20;99.90
8527;DHT22;4301;48.362;8.478;2022-08-19T09:55:58;19.20;99.90
8527;DHT22;4301;48.362;8.478;2022-08-19T09:58:26;19.30;99.90
8527;DHT22;4301;48.362;8.478;2022-08-19T10:00:55;19.20;99.90
8527;DHT22;4301;48.362;8.478;2022-08-19T10:03:22;19.20;99.90
8527;DHT22;4301;48.362;8.478;2022-08-19T10:05:49;19.30;99.90
8527;DHT22;4301;48.362;8.478;2022-08-19T10:08:18;19.40;99.90
8527;DHT22;4301;48.362;8.478;2022-08-19T10:10:47;19.40;99.90
8527;DHT22;4301;48.362;8.478;2022-08-19T10:13:17;19.30;99.90
8527;DHT22;4301;48.362;8.478;2022-08-19T10:15:47;19.40;99.90
8527;DHT22;4301;48.362;8.478;2022-08-19T10:18:18;19.50;99.90
8527;DHT22;4301;48.362;8.478;2022-08-19T10:20:46;19.70;99.90
8527;DHT22;4301;48.362;8.478;2022-08-19T10:23:13;19.80;99.90
8527;DHT22;4301;48.362;8.478;2022-08-19T10:25:40;20.00;99.90
8527;DHT22;4301;48.362;8.478;2022-08-19T10:28:08;20.20;99.90
8527;DHT22;4301;48.362;8.478;2022-08-19T10:30:38;20.30;99.90
8527;DHT22;4301;48.362;8.478;2022-08-19T10:33:06;20.50;99.90
8527;DHT22;4301;48.362;8.478;2022-08-19T10:35:33;20.40;99.90
8527;DHT22;4301;48.362;8.478;2022-08-19T10:38:02;20.60;99.90
8527;DHT22;4301;48.362;8.478;2022-08-19T10:40:29;20.80;99.90
8527;DHT22;4301;48.362;8.478;2022-08-19T10:42:55;20.90;99.90
8527;DHT22;4301;48.362;8.478;2022-08-19T10:45:23;21.10;99.90
8527;DHT22;4301;48.362;8.478;2022-08-19T10:47:52;21.30;99.90
8527;DHT22;4301;48.362;8.478;2022-08-19T10:50:21;21.40;99.90
8527;DHT22;4301;48.362;8.478;2022-08-19T10:53:07;21.30;99.90
8527;DHT22;4301;48.362;8.478;2022-08-19T10:55:35;21.00;99.90
8527;DHT22;4301;48.362;8.478;2022-08-19T10:58:20;21.00;99.90
8527;DHT22;4301;48.362;8.478;2022-08-19T11:00:54;20.80;99.90
8527;DHT22;4301;48.362;8.478;2022-08-19T11:03:23;20.80;99.90
8527;DHT22;4301;48.362;8.478;2022-08-19T11:05:59;20.70;99.90
8527;DHT22;4301;48.362;8.478;2022-08-19T11:08:27;20.80;99.90
8527;DHT22;4301;48.362;8.478;2022-08-19T11:10:54;21.00;99.90
8527;DHT22;4301;48.362;8.478;2022-08-19T11:13:23;20.80;99.90
8527;DHT22;4301;48.362;8.478;2022-08-19T11:15:57;20.80;99.90
8527;DHT22;4301;48.362;8.478;2022-08-19T11:18:24;20.90;99.90
8527;DHT22;4301;48.362;8.478;2022-08-19T11:20:52;21.20;99.90
8527;DHT22;4301;48.362;8.478;2022-08-19T11:23:20;21.30;99.90
8527;DHT22;4301;48.362;8.478;2022-08-19T11:25:47;21.40;99.90
8527;DHT22;4301;48.362;8.478;2022-08-19T11:28:16;21.40;99.90
8527;DHT22;4301;48.362;8.478;2022-08-19T11:30:45;21.40;99.90
8527;DHT22;4301;48.362;8.478;2022-08-19T11:33:12;21.30;99.90
8527;DHT22;4301;48.362;8.478;2022-08-19T11:35:39;21.20;99.90
8527;DHT22;4301;48.362;8.478;2022-08-19T11:38:07;21.30;99.90
8527;DHT22;4301;48.362;8.478;2022-08-19T11:40:35;21.30;99.90
8527;DHT22;4301;48.362;8.478;2022-08-19T11:43:02;21.30;99.90
8527;DHT22;4301;48.362;8.478;2022-08-19T11:45:30;21.70;99.90
8527;DHT22;4301;48.362;8.478;2022-08-19T11:47:57;23.20;99.90
8527;DHT22;4301;48.362;8.478;2022-08-19T11:50:24;24.20;99.90
8527;DHT22;4301;48.362;8.478;2022-08-19T11:52:54;25.00;99.90
8527;DHT22;4301;48.362;8.478;2022-08-19T11:55:21;25.20;99.90
8527;DHT22;4301;48.362;8.478;2022-08-19T11:57:50;25.30;99.90
8527;DHT22;4301;48.362;8.478;2022-08-19T12:00:17;25.00;99.90
8527;DHT22;4301;48.362;8.478;2022-08-19T12:02:44;24.70;99.90
8527;DHT22;4301;48.362;8.478;2022-08-19T12:05:11;25.00;99.90
8527;DHT22;4301;48.362;8.478;2022-08-19T12:07:38;24.90;99.90
8527;DHT22;4301;48.362;8.478;2022-08-19T12:10:06;24.80;99.90
8527;DHT22;4301;48.362;8.478;2022-08-19T12:12:33;24.30;99.90
8527;DHT22;4301;48.362;8.478;2022-08-19T12:15:01;23.80;99.90
8527;DHT22;4301;48.362;8.478;2022-08-19T12:17:28;23.80;99.90
8527;DHT22;4301;48.362;8.478;2022-08-19T12:19:56;23.80;99.90
8527;DHT22;4301;48.362;8.478;2022-08-19T12:22:23;23.60;99.90
8527;DHT22;4301;48.362;8.478;2022-08-19T12:24:50;23.20;99.90
8527;DHT22;4301;48.362;8.478;2022-08-19T12:27:18;23.10;99.90
8527;DHT22;4301;48.362;8.478;2022-08-19T12:29:45;23.20;99.90
8527;DHT22;4301;48.362;8.478;2022-08-19T12:32:14;23.40;99.90
8527;DHT22;4301;48.362;8.478;2022-08-19T12:34:42;23.50;99.90
8527;DHT22;4301;48.362;8.478;2022-08-19T12:37:10;23.60;99.90
8527;DHT22;4301;48.362;8.478;2022-08-19T12:39:40;23.70;99.90
8527;DHT22;4301;48.362;8.478;2022-08-19T12:42:08;23.30;99.90
8527;DHT22;4301;48.362;8.478;2022-08-19T12:44:36;23.10;99.90
8527;DHT22;4301;48.362;8.478;2022-08-19T12:47:04;23.00;99.90
8527;DHT22;4301;48.362;8.478;2022-08-19T12:49:34;22.70;99.90
8527;DHT22;4301;48.362;8.478;2022-08-19T12:52:03;22.60;99.90
8527;DHT22;4301;48.362;8.478;2022-08-19T12:54:31;22.50;99.90
8527;DHT22;4301;48.362;8.478;2022-08-19T12:56:58;22.50;99.90
8527;DHT22;4301;48.362;8.478;2022-08-19T12:59:25;22.50;99.90
8527;DHT22;4301;48.362;8.478;2022-08-19T13:01:53;22.60;99.90
8527;DHT22;4301;48.362;8.478;2022-08-19T13:04:20;22.70;99.90
8527;DHT22;4301;48.362;8.478;2022-08-19T13:06:48;22.60;99.90
8527;DHT22;4301;48.362;8.478;2022-08-19T13:09:16;22.60;99.90
8527;DHT22;4301;48.362;8.478;2022-08-19T13:11:43;22.60;99.90
8527;DHT22;4301;48.362;8.478;2022-08-19T13:14:10;22.60;99.90
8527;DHT22;4301;48.362;8.478;2022-08-19T13:16:37;22.40;99.90
8527;DHT22;4301;48.362;8.478;2022-08-19T13:19:05;22.30;99.90
8527;DHT22;4301;48.362;8.478;2022-08-19T13:21:33;22.20;99.90
8527;DHT22;4301;48.362;8.478;2022-08-19T13:24:02;22.10;99.90
8527;DHT22;4301;48.362;8.478;2022-08-19T13:26:29;22.00;99.90
8527;DHT22;4301;48.362;8.478;2022-08-19T13:28:56;22.20;99.90
8527;DHT22;4301;48.362;8.478;2022-08-19T13:31:41;22.50;99.90
8527;DHT22;4301;48.362;8.478;2022-08-19T13:34:29;22.80;99.90
8527;DHT22;4301;48.362;8.478;2022-08-19T13:36:56;23.10;99.90
8527;DHT22;4301;48.362;8.478;2022-08-19T13:39:25;23.20;99.90
8527;DHT22;4301;48.362;8.478;2022-08-19T13:41:53;23.10;99.90
8527;DHT22;4301;48.362;8.478;2022-08-19T13:44:20;23.00;99.90
8527;DHT22;4301;48.362;8.478;2022-08-19T13:46:48;22.90;99.90
8527;DHT22;4301;48.362;8.478;2022-08-19T13:49:16;22.90;99.90
8527;DHT22;4301;48.362;8.478;2022-08-19T13:51:43;22.80;99.90
8527;DHT22;4301;48.362;8.478;2022-08-19T13:54:11;22.70;99.90
8527;DHT22;4301;48.362;8.478;2022-08-19T13:56:42;22.60;99.90
8527;DHT22;4301;48.362;8.478;2022-08-19T13:59:09;22.40;99.90
8527;DHT22;4301;48.362;8.478;2022-08-19T14:01:37;22.40;99.90
8527;DHT22;4301;48.362;8.478;2022-08-19T14:04:05;22.30;99.90
8527;DHT22;4301;48.362;8.478;2022-08-19T14:06:32;22.40;99.90
8527;DHT22;4301;48.362;8.478;2022-08-19T14:08:59;22.40;99.90
8527;DHT22;4301;48.362;8.478;2022-08-19T14:11:27;22.60;99.90
8527;DHT22;4301;48.362;8.478;2022-08-19T14:13:55;22.60;99.90
8527;DHT22;4301;48.362;8.478;2022-08-19T14:16:22;22.80;99.90
8527;DHT22;4301;48.362;8.478;2022-08-19T14:18:50;23.10;99.90
8527;DHT22;4301;48.362;8.478;2022-08-19T14:21:20;23.30;99.90
8527;DHT22;4301;48.362;8.478;2022-08-19T14:23:48;23.30;99.90
8527;DHT22;4301;48.362;8.478;2022-08-19T14:26:17;23.40;99.90
8527;DHT22;4301;48.362;8.478;2022-08-19T14:28:58;23.60;99.90
8527;DHT22;4301;48.362;8.478;2022-08-19T14:31:27;23.80;99.90
8527;DHT22;4301;48.362;8.478;2022-08-19T14:33:54;24.10;99.90
8527;DHT22;4301;48.362;8.478;2022-08-19T14:36:21;24.30;99.90
8527;DHT22;4301;48.362;8.478;2022-08-19T14:38:48;24.30;99.90
8527;DHT22;4301;48.362;8.478;2022-08-19T14:41:17;24.40;99.90
8527;DHT22;4301;48.362;8.478;2022-08-19T14:43:46;24.30;99.90
8527;DHT22;4301;48.362;8.478;2022-08-19T14:46:16;24.00;99.90
8527;DHT22;4301;48.362;8.478;2022-08-19T14:48:45;23.70;99.90
8527;DHT22;4301;48.362;8.478;2022-08-19T14:51:13;23.40;99.90
8527;DHT22;4301;48.362;8.478;2022-08-19T14:53:40;23.40;99.90
8527;DHT22;4301;48.362;8.478;2022-08-19T14:56:08;23.50;99.90
8527;DHT22;4301;48.362;8.478;2022-08-19T14:58:35;23.60;99.90
8527;DHT22;4301;48.362;8.478;2022-08-19T15:01:03;23.60;99.90
8527;DHT22;4301;48.362;8.478;2022-08-19T15:03:31;23.50;99.90
8527;DHT22;4301;48.362;8.478;2022-08-19T15:05:59;23.40;99.90
8527;DHT22;4301;48.362;8.478;2022-08-19T15:08:28;23.40;99.90
8527;DHT22;4301;48.362;8.478;2022-08-19T15:10:56;23.40;99.90
8527;DHT22;4301;48.362;8.478;2022-08-19T15:13:24;23.40;99.90
8527;DHT22;4301;48.362;8.478;2022-08-19T15:15:51;23.30;99.90
8527;DHT22;4301;48.362;8.478;2022-08-19T15:18:19;23.10;99.90
8527;DHT22;4301;48.362;8.478;2022-08-19T15:20:48;23.10;99.90
8527;DHT22;4301;48.362;8.478;2022-08-19T15:23:16;23.10;99.90
8527;DHT22;4301;48.362;8.478;2022-08-19T15:25:44;23.20;99.90
8527;DHT22;4301;48.362;8.478;2022-08-19T15:28:11;23.20;99.90
8527;DHT22;4301;48.362;8.478;2022-08-19T15:30:40;23.10;99.90
8527;DHT22;4301;48.362;8.478;2022-08-19T15:33:10;23.00;99.90
8527;DHT22;4301;48.362;8.478;2022-08-19T15:35:39;22.70;99.90
8527;DHT22;4301;48.362;8.478;2022-08-19T15:38:09;22.40;99.90
8527;DHT22;4301;48.362;8.478;2022-08-19T15:40:39;22.30;99.90
8527;DHT22;4301;48.362;8.478;2022-08-19T15:43:07;22.10;99.90
8527;DHT22;4301;48.362;8.478;2022-08-19T15:45:34;21.90;99.90
8527;DHT22;4301;48.362;8.478;2022-08-19T15:48:02;21.70;99.90
8527;DHT22;4301;48.362;8.478;2022-08-19T15:50:30;21.50;99.90
8527;DHT22;4301;48.362;8.478;2022-08-19T15:53:00;21.50;99.90
8527;DHT22;4301;48.362;8.478;2022-08-19T15:55:32;21.50;99.90
8527;DHT22;4301;48.362;8.478;2022-08-19T15:58:00;21.50;99.90
8527;DHT22;4301;48.362;8.478;2022-08-19T16:00:45;21.50;99.90
8527;DHT22;4301;48.362;8.478;2022-08-19T16:03:29;21.50;99.90
8527;DHT22;4301;48.362;8.478;2022-08-19T16:06:13;21.50;99.90
8527;DHT22;4301;48.362;8.478;2022-08-19T16:08:52;21.60;99.90
8527;DHT22;4301;48.362;8.478;2022-08-19T16:11:22;21.50;99.90
8527;DHT22;4301;48.362;8.478;2022-08-19T16:13:51;21.50;99.90
8527;DHT22;4301;48.362;8.478;2022-08-19T16:16:20;21.50;99.90